Time;durP1;ratioP1;P1;durP2;ratioP2;P2;SDS_P1;SDS_P2;PMS_P1;PMS_P2;Temp;Humidity;BMP_temperature;BMP_pressure;BME280_temperature;BME280_humidity;BME280_pressure;Samples;Min_cycle;Max_cycle;Signal;HPM_P1;HPM_P2
2022/09/19 00:00:51;;;;;;;5.22;3.17;;;307.60;2304.00;;;;;;5124300;27;20030;-77
2022/09/19 00:03:16;;;;;;;10.13;3.60;;;307.60;2304.00;;;;;;5137058;27;20444;-77
2022/09/19 00:05:42;;;;;;;6.93;4.03;;;307.60;2304.00;;;;;;5118152;27;20019;-77
2022/09/19 00:08:09;;;;;;;8.60;4.90;;;307.60;2304.00;;;;;;5126541;27;20094;-77
2022/09/19 00:10:42;;;;;;;6.75;3.97;;;307.70;2304.00;;;;;;5111889;27;20043;-78
2022/09/19 00:13:08;;;;;;;9.80;4.47;;;307.80;2304.00;;;;;;5114657;27;20047;-77
2022/09/19 00:15:36;;;;;;;9.15;5.10;;;308.00;2304.00;;;;;;5126419;27;20134;-77
2022/09/19 00:18:02;;;;;;;12.05;7.32;;;332.80;2329.60;;;;;;5141956;27;20015;-78
2022/09/19 00:20:29;;;;;;;16.30;7.93;;;332.80;2329.60;;;;;;5115852;27;20027;-77
2022/09/19 00:25:38;;;;;;;17.67;8.13;;;332.90;2329.60;;;;;;5143930;27;20160;-77
2022/09/19 00:28:04;;;;;;;13.05;7.80;;;332.80;2329.60;;;;;;5155299;27;20133;-78
2022/09/19 00:30:30;;;;;;;13.00;7.00;;;333.00;2329.60;;;;;;5120771;27;20486;-78
2022/09/19 00:32:57;;;;;;;10.98;6.43;;;333.00;2329.60;;;;;;5155274;27;20022;-77
2022/09/19 00:35:23;;;;;;;10.40;6.55;;;333.10;2329.60;;;;;;5155194;27;20396;-77
2022/09/19 00:37:49;;;;;;;12.40;6.60;;;333.10;2329.60;;;;;;5117865;27;20022;-77
2022/09/19 00:40:14;;;;;;;9.48;5.47;;;333.00;2329.60;;;;;;5123464;27;20039;-77
2022/09/19 00:42:40;;;;;;;8.00;4.93;;;333.10;2329.60;;;;;;5139158;27;20030;-77
2022/09/19 00:45:16;;;;;;;9.05;5.18;;;333.20;2329.60;;;;;;5136093;27;20023;-77
2022/09/19 00:47:48;;;;;;;8.85;4.30;;;333.20;2329.60;;;;;;5134128;27;20023;-77
2022/09/19 00:50:23;;;;;;;6.80;4.00;;;333.10;2329.60;;;;;;5118738;27;20027;-76
2022/09/19 00:52:54;;;;;;;7.97;4.40;;;333.00;2329.60;;;;;;5136214;27;20027;-76
2022/09/19 00:55:20;;;;;;;6.70;3.63;;;333.10;2329.60;;;;;;5135762;27;20015;-77
2022/09/19 00:58:11;;;;;;;6.38;3.75;;;333.20;2329.60;;;;;;5136018;27;20060;-77
2022/09/19 01:00:37;;;;;;;5.85;3.58;;;333.10;2329.60;;;;;;5136551;27;20015;-77
2022/09/19 01:03:09;;;;;;;6.80;3.50;;;333.10;2329.60;;;;;;5120198;27;20043;-78
2022/09/19 01:05:55;;;;;;;5.35;3.13;;;333.10;2329.60;;;;;;5133948;27;20532;-78
2022/09/19 01:08:55;;;;;;;7.20;2.97;;;333.10;2329.60;;;;;;5115141;27;20031;-77
2022/09/19 01:11:24;;;;;;;4.60;2.63;;;333.00;2329.60;;;;;;5117908;27;20292;-78
2022/09/19 01:14:41;;;;;;;4.20;1.98;;;332.90;2329.60;;;;;;5120084;27;20019;-77
2022/09/19 01:17:19;;;;;;;7.93;2.47;;;332.80;2329.60;;;;;;5078481;28;20103;-77
2022/09/19 01:19:59;;;;;;;5.18;2.13;;;308.00;2304.00;;;;;;5089721;28;20031;-77
2022/09/19 01:22:52;;;;;;;3.33;2.10;;;307.90;2304.00;;;;;;5072631;28;20035;-77
2022/09/19 01:25:31;;;;;;;5.82;2.03;;;307.80;2304.00;;;;;;5072560;28;20028;-77
2022/09/19 01:28:20;;;;;;;7.47;1.90;;;307.70;2304.00;;;;;;5092530;28;20085;-77
2022/09/19 01:31:27;;;;;;;4.93;1.92;;;307.80;2304.00;;;;;;5095138;28;20469;-77
2022/09/19 01:34:07;;;;;;;2.42;1.63;;;307.80;2304.00;;;;;;5074914;28;20028;-75
2022/09/19 01:37:17;;;;;;;2.80;1.80;;;307.70;2304.00;;;;;;5092023;28;20016;-75
2022/09/19 01:39:46;;;;;;;5.50;2.03;;;307.60;2304.00;;;;;;5070452;28;20086;-75
2022/09/19 01:42:14;;;;;;;4.05;2.25;;;307.50;2304.00;;;;;;5092264;28;20034;-75
2022/09/19 01:44:40;;;;;;;3.50;1.88;;;307.60;2304.00;;;;;;5089043;28;20039;-75
2022/09/19 01:47:43;;;;;;;5.82;2.28;;;307.60;2304.00;;;;;;5097850;28;20021;-75
2022/09/19 01:50:10;;;;;;;3.28;1.85;;;307.80;2304.00;;;;;;5072307;28;20017;-74
2022/09/19 01:53:05;;;;;;;7.47;1.85;;;307.60;2304.00;;;;;;5105239;27;20039;-75
2022/09/19 01:55:50;;;;;;;6.88;2.10;;;307.70;2304.00;;;;;;5134150;27;20066;-74
2022/09/19 01:58:24;;;;;;;2.90;1.80;;;307.70;2304.00;;;;;;5135008;27;20019;-75
2022/09/19 02:01:05;;;;;;;6.88;2.03;;;307.80;2304.00;;;;;;5119534;27;20048;-75
2022/09/19 02:03:36;;;;;;;4.65;2.10;;;307.80;2304.00;;;;;;5134060;27;20032;-76
2022/09/19 02:06:13;;;;;;;3.80;2.30;;;307.90;2304.00;;;;;;5130137;27;20007;-75
2022/09/19 02:08:47;;;;;;;6.00;2.10;;;307.90;2304.00;;;;;;5122816;27;20465;-75
2022/09/19 02:11:17;;;;;;;4.35;2.08;;;308.00;2304.00;;;;;;5112679;27;20729;-75
2022/09/19 02:13:49;;;;;;;4.72;2.38;;;308.10;2304.00;;;;;;5121631;27;20043;-75
2022/09/19 02:16:17;;;;;;;5.13;2.58;;;308.10;2304.00;;;;;;5134765;27;20019;-75
2022/09/19 02:18:45;;;;;;;5.65;2.25;;;308.10;2304.00;;;;;;5155260;27;20384;-75
2022/09/19 02:21:18;;;;;;;4.32;2.30;;;308.10;2304.00;;;;;;5139367;27;20469;-75
2022/09/19 02:23:50;;;;;;;4.05;2.70;;;308.10;2304.00;;;;;;5134001;27;20023;-75
2022/09/19 02:26:21;;;;;;;8.00;2.05;;;332.80;2329.60;;;;;;5141791;27;20496;-75
2022/09/19 02:28:54;;;;;;;5.90;2.53;;;332.90;2329.60;;;;;;5141669;27;20025;-75
2022/09/19 02:31:26;;;;;;;7.47;2.97;;;332.80;2329.60;;;;;;5117890;27;20023;-75
2022/09/19 02:33:56;;;;;;;5.43;2.17;;;332.90;2329.60;;;;;;5120227;27;20064;-75
2022/09/19 02:36:50;;;;;;;5.65;2.45;;;333.00;2329.60;;;;;;5137317;27;20106;-75
2022/09/19 02:39:30;;;;;;;7.75;2.80;;;333.00;2329.60;;;;;;5108091;28;20019;-75
2022/09/19 02:42:22;;;;;;;7.35;3.05;;;333.00;2329.60;;;;;;5102253;28;20058;-75
2022/09/19 02:45:02;;;;;;;5.85;2.50;;;333.00;2329.60;;;;;;5116190;27;20476;-75
2022/09/19 02:47:34;;;;;;;9.30;2.70;;;333.00;2329.60;;;;;;5112299;27;20028;-75
2022/09/19 02:50:29;;;;;;;9.52;2.63;;;332.80;2329.60;;;;;;5096946;28;20104;-75
2022/09/19 02:52:58;;;;;;;6.95;3.08;;;307.90;2304.00;;;;;;5098684;28;20023;-75
2022/09/19 02:55:30;;;;;;;4.22;2.25;;;307.60;2304.00;;;;;;5099144;28;20114;-75
2022/09/19 02:58:01;;;;;;;7.20;2.85;;;307.60;2304.00;;;;;;5099337;28;20019;-75
2022/09/19 03:00:26;;;;;;;6.18;3.13;;;307.60;2304.00;;;;;;5120334;27;20016;-75
2022/09/19 03:03:00;;;;;;;4.55;2.63;;;307.50;2304.00;;;;;;5117542;27;20030;-75
2022/09/19 03:05:29;;;;;;;5.75;2.70;;;307.40;2304.00;;;;;;5115704;27;20027;-75
2022/09/19 03:08:03;;;;;;;5.65;2.40;;;307.40;2304.00;;;;;;5120111;27;20016;-76
2022/09/19 03:10:35;;;;;;;5.32;2.50;;;307.40;2304.00;;;;;;5092808;28;20060;-75
2022/09/19 03:13:08;;;;;;;5.63;2.33;;;307.60;2304.00;;;;;;5098716;28;20020;-75
2022/09/19 03:15:41;;;;;;;14.95;3.22;;;307.80;2304.00;;;;;;5117150;27;20019;-75
2022/09/19 03:18:13;;;;;;;5.80;2.85;;;308.00;2304.00;;;;;;5117916;27;20099;-75
2022/09/19 03:20:44;;;;;;;6.50;2.80;;;308.10;2304.00;;;;;;5122665;27;20068;-75
2022/09/19 03:23:12;;;;;;;5.15;2.65;;;308.10;2304.00;;;;;;5100673;27;20035;-75
2022/09/19 03:25:38;;;;;;;5.22;2.72;;;308.10;2304.00;;;;;;5101901;28;20065;-75
2022/09/19 03:28:04;;;;;;;6.80;2.63;;;332.80;2329.60;;;;;;5098608;28;20024;-75
2022/09/19 03:30:30;;;;;;;4.97;2.60;;;308.10;2304.00;;;;;;5132611;27;20019;-75
2022/09/19 03:32:56;;;;;;;8.70;2.65;;;308.10;2304.00;;;;;;5119666;27;20342;-74
2022/09/19 03:35:22;;;;;;;5.18;3.22;;;332.90;2329.60;;;;;;5132737;27;20110;-76
2022/09/19 03:37:50;;;;;;;7.20;2.88;;;333.00;2329.60;;;;;;5095571;28;20481;-75
2022/09/19 03:40:16;;;;;;;5.20;3.10;;;333.00;2329.60;;;;;;5138099;27;20127;-75
2022/09/19 03:42:45;;;;;;;7.85;2.67;;;333.00;2329.60;;;;;;5100605;28;20023;-76
2022/09/19 03:45:10;;;;;;;5.05;2.55;;;332.90;2329.60;;;;;;5100220;27;20028;-75
2022/09/19 03:47:37;;;;;;;5.88;3.10;;;332.80;2329.60;;;;;;5120326;27;20373;-75
2022/09/19 03:50:03;;;;;;;5.82;2.55;;;332.80;2329.60;;;;;;5119407;27;20020;-75
2022/09/19 03:52:29;;;;;;;4.93;2.53;;;332.90;2329.60;;;;;;5116400;27;20020;-75
2022/09/19 03:54:56;;;;;;;5.07;2.83;;;332.90;2329.60;;;;;;5134498;27;20492;-75
2022/09/19 03:57:22;;;;;;;5.35;3.15;;;332.90;2329.60;;;;;;5098507;28;20024;-75
2022/09/19 03:59:48;;;;;;;5.50;3.40;;;333.00;2329.60;;;;;;5119322;27;20018;-74
2022/09/19 04:02:13;;;;;;;6.22;2.90;;;333.00;2329.60;;;;;;5119106;27;20073;-75
2022/09/19 04:04:40;;;;;;;7.97;2.60;;;333.00;2329.60;;;;;;5097693;27;20035;-74
2022/09/19 04:07:06;;;;;;;6.65;2.90;;;332.90;2329.60;;;;;;5098044;28;20015;-76
2022/09/19 04:09:32;;;;;;;4.07;2.40;;;333.10;2329.60;;;;;;5110070;27;20029;-75
2022/09/19 04:11:59;;;;;;;6.35;2.72;;;332.90;2329.60;;;;;;5115970;27;20103;-76
2022/09/19 04:14:26;;;;;;;4.32;2.78;;;332.90;2329.60;;;;;;5103241;28;20099;-77
2022/09/19 04:16:52;;;;;;;5.85;3.03;;;332.90;2329.60;;;;;;5106048;27;20072;-76
2022/09/19 04:19:18;;;;;;;4.80;2.58;;;332.90;2329.60;;;;;;5118832;27;20032;-77
2022/09/19 04:21:44;;;;;;;3.85;2.28;;;332.90;2329.60;;;;;;5100361;28;20020;-76
2022/09/19 04:24:11;;;;;;;3.90;2.40;;;332.80;2329.60;;;;;;5125688;27;20083;-76
2022/09/19 04:26:37;;;;;;;8.35;2.47;;;332.80;2329.60;;;;;;5098377;27;20028;-76
2022/09/19 04:29:06;;;;;;;3.60;2.30;;;332.90;2329.60;;;;;;5119320;27;20019;-76
2022/09/19 04:31:38;;;;;;;7.97;2.50;;;332.80;2329.60;;;;;;5123383;27;20051;-76
2022/09/19 04:34:04;;;;;;;4.53;2.30;;;332.90;2329.60;;;;;;5124554;27;20072;-75
2022/09/19 04:36:31;;;;;;;4.15;2.40;;;332.90;2329.60;;;;;;5099949;27;20022;-76
2022/09/19 04:39:02;;;;;;;4.85;2.50;;;332.90;2329.60;;;;;;5109193;27;20507;-76
2022/09/19 04:41:32;;;;;;;7.45;2.53;;;332.90;2329.60;;;;;;5115860;27;20481;-76
2022/09/19 04:43:58;;;;;;;8.80;3.17;;;332.90;2329.60;;;;;;5096787;28;20038;-76
2022/09/19 04:46:24;;;;;;;4.38;2.45;;;332.80;2329.60;;;;;;5094803;28;20028;-77
2022/09/19 04:48:52;;;;;;;8.13;2.17;;;332.80;2329.60;;;;;;5115717;27;20384;-77
2022/09/19 04:51:18;;;;;;;5.72;2.63;;;332.80;2329.60;;;;;;5139338;27;20019;-76
2022/09/19 04:53:44;;;;;;;4.07;2.63;;;332.90;2329.60;;;;;;5118362;27;20086;-76
2022/09/19 04:56:11;;;;;;;4.03;2.20;;;332.80;2329.60;;;;;;5100885;27;20015;-77
2022/09/19 04:58:40;;;;;;;4.32;2.38;;;332.80;2329.60;;;;;;5138206;27;20050;-77
2022/09/19 05:01:07;;;;;;;5.20;2.08;;;332.80;2329.60;;;;;;5096667;27;20032;-76
2022/09/19 05:03:35;;;;;;;4.65;2.25;;;332.80;2329.60;;;;;;5101988;28;20031;-76
2022/09/19 05:06:01;;;;;;;7.30;2.95;;;308.10;2304.00;;;;;;5096801;28;20424;-77
2022/09/19 05:08:29;;;;;;;5.78;2.40;;;308.00;2304.00;;;;;;5100994;27;20027;-77
2022/09/19 05:11:03;;;;;;;5.13;2.60;;;307.90;2304.00;;;;;;5114028;27;20082;-77
2022/09/19 05:13:31;;;;;;;5.57;2.40;;;307.90;2304.00;;;;;;5138878;27;20028;-77
2022/09/19 05:16:00;;;;;;;3.20;2.05;;;308.00;2304.00;;;;;;5117227;27;20083;-77
2022/09/19 05:18:25;;;;;;;4.93;2.20;;;308.00;2304.00;;;;;;5135452;27;20015;-78
2022/09/19 05:20:52;;;;;;;3.30;2.13;;;308.00;2304.00;;;;;;5115813;27;20465;-78
2022/09/19 05:23:20;;;;;;;5.13;2.30;;;307.80;2304.00;;;;;;5127182;27;20418;-79
2022/09/19 05:25:45;;;;;;;3.78;2.13;;;307.80;2304.00;;;;;;5120306;27;20026;-78
2022/09/19 05:28:11;;;;;;;3.45;2.03;;;307.80;2304.00;;;;;;5117144;27;20020;-79
2022/09/19 05:30:45;;;;;;;5.15;2.25;;;307.90;2304.00;;;;;;5140445;27;20047;-76
2022/09/19 05:33:11;;;;;;;8.05;1.92;;;307.90;2304.00;;;;;;5135572;27;20019;-78
2022/09/19 05:35:37;;;;;;;4.40;2.70;;;307.90;2304.00;;;;;;5118047;27;20106;-82
2022/09/19 05:38:03;;;;;;;6.90;2.55;;;307.90;2304.00;;;;;;5129459;27;20023;-78
2022/09/19 05:40:30;;;;;;;5.35;2.00;;;307.90;2304.00;;;;;;5113688;27;20204;-78
2022/09/19 05:43:02;;;;;;;8.68;1.85;;;308.00;2304.00;;;;;;5119104;28;20032;-78
2022/09/19 05:45:28;;;;;;;3.47;2.13;;;307.90;2304.00;;;;;;5144660;27;20043;-79
2022/09/19 05:48:06;;;;;;;5.43;2.30;;;307.80;2304.00;;;;;;5134624;27;20015;-76
2022/09/19 05:50:35;;;;;;;4.40;2.17;;;307.90;2304.00;;;;;;5137311;27;20082;-77
2022/09/19 05:55:45;;;;;;;3.67;2.08;;;308.00;2304.00;;;;;;5123431;27;20033;-75
2022/09/19 05:58:12;;;;;;;4.18;2.55;;;308.00;2304.00;;;;;;5137026;27;20379;-77
2022/09/19 06:00:38;;;;;;;4.38;2.03;;;308.10;2304.00;;;;;;5151584;27;20012;-77
2022/09/19 06:03:06;;;;;;;3.28;1.88;;;308.10;2304.00;;;;;;5118234;27;20031;-78
2022/09/19 06:05:39;;;;;;;7.45;1.77;;;308.10;2304.00;;;;;;5118871;27;20477;-78
2022/09/19 06:08:07;;;;;;;3.33;1.60;;;308.10;2304.00;;;;;;5116333;27;20022;-76
2022/09/19 06:10:36;;;;;;;3.92;1.55;;;308.10;2304.00;;;;;;5108028;28;20051;-79
2022/09/19 06:13:02;;;;;;;3.28;1.73;;;308.10;2304.00;;;;;;5131317;27;20085;-81
2022/09/19 06:15:28;;;;;;;6.57;1.60;;;332.80;2329.60;;;;;;5140151;27;20390;-82
2022/09/19 06:17:54;;;;;;;3.28;1.50;;;332.80;2329.60;;;;;;5135274;27;20019;-82
2022/09/19 06:20:20;;;;;;;5.90;2.17;;;332.80;2329.60;;;;;;5119910;27;20555;-82
2022/09/19 06:22:46;;;;;;;6.15;2.10;;;332.80;2329.60;;;;;;5119586;27;20019;-82
2022/09/19 06:25:13;;;;;;;4.45;1.42;;;332.80;2329.60;;;;;;5127565;27;20131;-81
2022/09/19 06:27:39;;;;;;;2.60;1.45;;;332.80;2329.60;;;;;;5154629;27;20031;-80
2022/09/19 06:30:05;;;;;;;2.85;1.50;;;308.10;2304.00;;;;;;5122101;27;20121;-84
2022/09/19 06:32:32;;;;;;;5.75;1.75;;;332.80;2329.60;;;;;;5119085;27;20361;-80
2022/09/19 06:34:57;;;;;;;6.15;3.03;;;332.80;2329.60;;;;;;5119207;27;20023;-80
2022/09/19 06:37:23;;;;;;;3.53;2.22;;;332.80;2329.60;;;;;;5153501;27;20033;-81
2022/09/19 06:39:49;;;;;;;6.93;2.10;;;332.80;2329.60;;;;;;5118896;27;20502;-80
2022/09/19 06:42:15;;;;;;;6.90;2.58;;;332.90;2329.60;;;;;;5118995;27;20038;-84
2022/09/19 06:44:40;;;;;;;4.15;2.10;;;332.80;2329.60;;;;;;5118887;27;20031;-81
2022/09/19 06:47:06;;;;;;;4.13;2.00;;;332.80;2329.60;;;;;;5118549;27;20019;-78
2022/09/19 06:49:33;;;;;;;6.28;2.00;;;308.10;2304.00;;;;;;5118429;27;20107;-79
2022/09/19 06:51:58;;;;;;;3.83;1.75;;;308.10;2304.00;;;;;;5118264;27;20050;-79
2022/09/19 06:54:24;;;;;;;7.28;2.22;;;308.10;2304.00;;;;;;5118638;27;20480;-79
2022/09/19 06:56:51;;;;;;;4.18;2.17;;;332.80;2329.60;;;;;;5118630;27;20099;-82
2022/09/19 06:59:18;;;;;;;7.35;2.00;;;333.00;2329.60;;;;;;5117488;27;20031;-80
2022/09/19 07:01:47;;;;;;;7.45;2.28;;;333.20;2329.60;;;;;;5118539;27;20019;-80
2022/09/19 07:04:13;;;;;;;4.57;2.38;;;333.40;2329.60;;;;;;5118228;27;20039;-81
2022/09/19 07:06:39;;;;;;;7.10;2.15;;;333.40;2329.60;;;;;;5118347;27;20050;-84
2022/09/19 07:09:07;;;;;;;6.82;2.42;;;333.50;2329.60;;;;;;5136211;27;20062;-80
2022/09/19 07:11:35;;;;;;;5.10;2.13;;;333.50;2329.60;;;;;;5122208;27;20507;-82
2022/09/19 07:14:04;;;;;;;9.13;1.75;;;333.60;2329.60;;;;;;5127049;27;20046;-81
2022/09/19 07:16:31;;;;;;;6.35;1.77;;;333.60;2329.60;;;;;;5132295;27;20430;-79
2022/09/19 07:18:57;;;;;;;4.03;2.03;;;333.70;2329.60;;;;;;5118081;27;20074;-78
2022/09/19 07:21:23;;;;;;;4.47;1.60;;;358.40;2329.60;;;;;;5118165;27;20019;-83
2022/09/19 07:23:49;;;;;;;3.30;1.60;;;358.50;2329.60;;;;;;5118406;27;20035;-81
2022/09/19 07:26:15;;;;;;;5.10;2.22;;;358.60;2329.60;;;;;;5135799;27;20465;-79
2022/09/19 07:28:41;;;;;;;5.18;1.50;;;358.80;2329.60;;;;;;5117632;27;20023;-78
2022/09/19 07:31:07;;;;;;;3.58;1.85;;;358.90;2329.60;;;;;;5117333;27;20023;-81
2022/09/19 07:33:33;;;;;;;5.13;1.88;;;358.90;2329.60;;;;;;5143996;27;20047;-80
2022/09/19 07:35:59;;;;;;;6.07;1.80;;;359.00;2329.60;;;;;;5120186;27;20026;-82
2022/09/19 07:38:27;;;;;;;4.00;1.60;;;359.00;2329.60;;;;;;5137789;27;20020;-80
2022/09/19 07:40:54;;;;;;;4.72;2.08;;;359.00;2329.60;;;;;;5154803;27;20487;-83
2022/09/19 07:43:20;;;;;;;3.38;1.45;;;359.10;2329.60;;;;;;5135299;27;20465;-78
2022/09/19 07:45:51;;;;;;;12.68;2.90;;;359.30;2329.60;;;;;;5117398;27;20141;-79
2022/09/19 07:48:18;;;;;;;3.53;1.50;;;384.00;2329.60;;;;;;5151265;27;20088;-78
2022/09/19 07:50:44;;;;;;;4.60;1.70;;;384.20;2329.60;;;;;;5121005;27;20011;-85
2022/09/19 07:53:16;;;;;;;4.05;1.80;;;384.40;2329.60;;;;;;5149808;27;20488;-81
2022/09/19 07:55:42;;;;;;;8.20;1.98;;;384.60;2329.60;;;;;;5116681;27;20731;-79
2022/09/19 07:58:10;;;;;;;5.18;2.05;;;384.70;2329.60;;;;;;5131536;27;20024;-83
2022/09/19 08:00:37;;;;;;;6.60;1.48;;;409.60;2355.20;;;;;;5130049;27;20019;-86
2022/09/19 08:03:09;;;;;;;3.40;1.70;;;409.70;2355.20;;;;;;5118621;27;20035;-80
2022/09/19 08:05:38;;;;;;;2.33;1.15;;;409.70;2355.20;;;;;;5116964;27;20080;-80
2022/09/19 08:08:10;;;;;;;4.32;1.30;;;409.70;2355.20;;;;;;5134708;27;20353;-76
2022/09/19 08:10:37;;;;;;;3.42;1.60;;;409.80;2355.20;;;;;;5134546;27;20047;-78
2022/09/19 08:13:05;;;;;;;4.88;2.42;;;409.80;2355.20;;;;;;5130979;27;20034;-78
2022/09/19 08:15:33;;;;;;;3.88;2.33;;;409.90;2355.20;;;;;;5116351;27;20110;-77
2022/09/19 08:18:06;;;;;;;5.13;2.35;;;409.90;2355.20;;;;;;5115664;27;20031;-78
2022/09/19 08:20:38;;;;;;;8.77;2.03;;;410.00;2355.20;;;;;;5143698;27;20031;-79
2022/09/19 08:23:12;;;;;;;11.13;2.95;;;410.20;2355.20;;;;;;5139376;27;20110;-78
2022/09/19 08:25:42;;;;;;;5.75;2.25;;;410.00;2355.20;;;;;;5118601;27;20023;-79
2022/09/19 08:28:08;;;;;;;7.65;1.95;;;410.00;2355.20;;;;;;5118319;27;20022;-78
2022/09/19 08:30:35;;;;;;;3.83;1.73;;;410.00;2355.20;;;;;;5129399;27;20023;-81
2022/09/19 08:33:02;;;;;;;2.88;1.75;;;410.00;2355.20;;;;;;5124761;27;20031;-78
2022/09/19 08:35:29;;;;;;;5.65;1.77;;;410.20;2355.20;;;;;;5121855;27;20075;-83
2022/09/19 08:38:00;;;;;;;2.63;1.30;;;410.20;2355.20;;;;;;5117078;27;20100;-81
2022/09/19 08:40:28;;;;;;;5.25;1.83;;;410.20;2355.20;;;;;;5134555;27;20589;-82
2022/09/19 08:43:24;;;;;;;4.25;1.42;;;410.20;2355.20;;;;;;5115442;27;20030;-81
2022/09/19 08:46:09;;;;;;;4.88;1.75;;;410.20;2355.20;;;;;;5115546;27;20042;-81
2022/09/19 08:49:07;;;;;;;4.45;1.83;;;410.10;2355.20;;;;;;5141213;27;20087;-83
2022/09/19 08:52:10;;;;;;;7.13;1.75;;;410.20;2355.20;;;;;;5136681;27;20019;-79
2022/09/19 08:54:43;;;;;;;3.33;1.58;;;410.30;2355.20;;;;;;5149769;27;20488;-83
2022/09/19 08:57:25;;;;;;;6.60;2.17;;;410.30;2355.20;;;;;;5114405;27;20037;-82
2022/09/19 08:59:56;;;;;;;3.17;1.80;;;410.40;2355.20;;;;;;5115711;27;20027;-78
2022/09/19 09:02:30;;;;;;;3.03;1.60;;;410.50;2355.20;;;;;;5125076;27;20030;-79
2022/09/19 09:04:56;;;;;;;5.85;2.00;;;410.40;2355.20;;;;;;5134293;27;20085;-82
2022/09/19 09:07:52;;;;;;;2.10;1.25;;;410.40;2355.20;;;;;;5122502;27;20484;-80
2022/09/19 09:10:45;;;;;;;6.20;1.77;;;410.30;2355.20;;;;;;5130488;27;20047;-80
2022/09/19 09:13:43;;;;;;;3.72;1.88;;;410.20;2355.20;;;;;;5118054;27;20019;-78
2022/09/19 09:16:27;;;;;;;4.95;1.92;;;410.20;2355.20;;;;;;5116562;27;20027;-80
2022/09/19 09:19:22;;;;;;;4.37;2.13;;;410.00;2355.20;;;;;;5131779;27;20058;-77
2022/09/19 09:21:54;;;;;;;7.72;2.33;;;409.90;2355.20;;;;;;5115453;27;20023;-78
2022/09/19 09:24:47;;;;;;;9.02;2.83;;;409.90;2355.20;;;;;;5114828;27;20561;-78
2022/09/19 09:27:18;;;;;;;8.38;2.92;;;409.80;2355.20;;;;;;5114347;27;20392;-78
2022/09/19 09:29:50;;;;;;;7.15;3.08;;;409.80;2355.20;;;;;;5133821;27;20024;-83
2022/09/19 09:32:30;;;;;;;4.78;2.40;;;409.70;2355.20;;;;;;5133377;27;20015;-79
2022/09/19 09:35:18;;;;;;;7.43;2.40;;;409.70;2355.20;;;;;;5115819;27;20059;-80
2022/09/19 09:37:48;;;;;;;8.38;2.47;;;409.70;2355.20;;;;;;5134089;27;20018;-83
2022/09/19 09:43:31;;;;;;;9.20;2.42;;;384.90;2329.60;;;;;;5133938;27;20111;-79
2022/09/19 09:46:00;;;;;;;4.25;2.38;;;409.60;2355.20;;;;;;5116103;27;20019;-80
2022/09/19 09:48:33;;;;;;;4.10;2.00;;;409.70;2355.20;;;;;;5133988;27;20023;-82
2022/09/19 09:51:21;;;;;;;4.47;2.22;;;409.60;2355.20;;;;;;5115235;27;20418;-82
2022/09/19 09:53:58;;;;;;;6.20;2.30;;;384.80;2329.60;;;;;;5114496;27;20034;-79
2022/09/19 09:56:33;;;;;;;5.50;2.15;;;384.90;2329.60;;;;;;5117413;27;20024;-81
2022/09/19 10:03:33;;;;;;;6.20;2.42;;;409.60;2355.20;;;;;;5135410;27;20476;-80
2022/09/19 10:04:51;;;;;;;6.32;2.60;;;409.80;2355.20;;;;;;5083689;28;19916;-77
2022/09/19 10:07:26;;;;;;;7.40;2.53;;;409.80;2355.20;;;;;;5053326;28;20056;-79
2022/09/19 10:09:57;;;;;;;4.75;2.17;;;409.80;2355.20;;;;;;5049867;28;20082;-82
2022/09/19 10:12:23;;;;;;;4.78;2.35;;;409.80;2355.20;;;;;;5074187;28;20032;-78
2022/09/19 10:14:55;;;;;;;4.63;2.22;;;409.80;2355.20;;;;;;5055987;28;20116;-80
2022/09/19 10:17:23;;;;;;;5.57;2.38;;;409.80;2355.20;;;;;;5053785;28;20021;-84
2022/09/19 10:19:56;;;;;;;3.50;2.00;;;409.80;2355.20;;;;;;5070442;28;20147;-83
2022/09/19 10:22:22;;;;;;;5.85;2.53;;;410.00;2355.20;;;;;;5053588;28;20045;-78
2022/09/19 10:24:52;;;;;;;8.23;2.15;;;410.00;2355.20;;;;;;5067467;28;20505;-84
2022/09/19 10:27:25;;;;;;;4.70;2.42;;;409.90;2355.20;;;;;;5070023;28;20103;-80
2022/09/19 10:30:11;;;;;;;5.57;2.78;;;409.90;2355.20;;;;;;5073435;28;20442;-81
2022/09/19 10:32:37;;;;;;;5.63;2.72;;;410.00;2355.20;;;;;;5078702;28;20025;-77
2022/09/19 10:35:28;;;;;;;7.68;2.72;;;410.10;2355.20;;;;;;5083661;28;20500;-78
2022/09/19 10:38:04;;;;;;;6.88;2.22;;;410.20;2355.20;;;;;;5056395;28;20031;-80
2022/09/19 10:40:31;;;;;;;4.22;2.22;;;410.20;2355.20;;;;;;5068357;28;20033;-79
2022/09/19 10:42:59;;;;;;;5.53;2.80;;;410.30;2355.20;;;;;;5125087;27;20076;-78
2022/09/19 10:45:37;;;;;;;3.33;2.15;;;410.30;2355.20;;;;;;5139165;27;20038;-85
2022/09/19 10:48:11;;;;;;;4.43;2.08;;;410.30;2355.20;;;;;;5115237;27;20030;-81
2022/09/19 10:50:47;;;;;;;8.27;2.58;;;410.40;2355.20;;;;;;5145259;27;20033;-78
2022/09/19 10:53:28;;;;;;;4.25;2.58;;;410.50;2355.20;;;;;;5123819;27;20027;-82
2022/09/19 10:55:57;;;;;;;6.32;2.40;;;410.50;2355.20;;;;;;5155573;27;20071;-80
2022/09/19 10:58:28;;;;;;;5.80;2.90;;;410.40;2355.20;;;;;;5136615;27;20023;-88
2022/09/19 11:01:01;;;;;;;8.07;3.00;;;410.50;2355.20;;;;;;5119373;27;20019;-81
2022/09/19 11:03:30;;;;;;;7.03;2.83;;;435.20;2355.20;;;;;;5136860;27;20037;-82
2022/09/19 11:06:13;;;;;;;6.65;3.15;;;410.50;2355.20;;;;;;5118109;27;20035;-88
2022/09/19 11:08:44;;;;;;;6.10;3.33;;;410.50;2355.20;;;;;;5112250;28;20061;-82
2022/09/19 11:11:50;;;;;;;3.75;2.20;;;410.50;2355.20;;;;;;5097249;28;20056;-81
2022/09/19 11:14:18;;;;;;;6.13;1.70;;;410.50;2355.20;;;;;;5020947;28;20085;-82
2022/09/19 11:17:12;;;;;;;5.15;2.00;;;410.50;2355.20;;;;;;5013856;28;20018;-83
2022/09/19 11:20:20;;;;;;;4.88;1.77;;;435.20;2355.20;;;;;;5013504;28;20022;-83
2022/09/19 11:23:05;;;;;;;3.05;1.38;;;410.50;2355.20;;;;;;5013629;28;20076;-80
2022/09/19 11:25:41;;;;;;;2.60;1.50;;;410.50;2355.20;;;;;;4997106;28;20088;-78
2022/09/19 11:28:25;;;;;;;3.28;1.60;;;410.50;2355.20;;;;;;4996922;28;20096;-83
2022/09/19 11:31:08;;;;;;;3.40;1.85;;;410.50;2355.20;;;;;;4996544;28;20574;-78
2022/09/19 11:34:20;;;;;;;3.63;1.60;;;410.50;2355.20;;;;;;4996416;28;20496;-80
2022/09/19 11:37:07;;;;;;;2.03;1.30;;;410.50;2355.20;;;;;;5012966;28;20026;-77
2022/09/19 11:40:18;;;;;;;5.07;2.15;;;410.50;2355.20;;;;;;5029866;28;20030;-78
2022/09/19 11:43:12;;;;;;;2.35;1.20;;;410.40;2355.20;;;;;;5013373;28;20034;-84
2022/09/19 11:46:03;;;;;;;2.17;1.35;;;410.50;2355.20;;;;;;4997567;28;20069;-83
2022/09/19 11:48:48;;;;;;;2.25;1.33;;;410.50;2355.20;;;;;;4997709;28;20022;-84
2022/09/19 11:51:32;;;;;;;3.00;1.65;;;410.50;2355.20;;;;;;5057215;28;20448;-77
2022/09/19 11:54:15;;;;;;;4.18;1.70;;;410.40;2355.20;;;;;;5096463;28;20020;-80
2022/09/19 11:56:53;;;;;;;3.95;1.67;;;410.40;2355.20;;;;;;5092037;28;20035;-85
2022/09/19 11:59:39;;;;;;;2.90;1.65;;;410.40;2355.20;;;;;;5114957;28;20019;-81
2022/09/19 12:02:27;;;;;;;3.08;1.83;;;410.40;2355.20;;;;;;5097091;28;20019;-85
2022/09/19 12:05:02;;;;;;;3.33;1.60;;;410.40;2355.20;;;;;;5096947;28;20027;-78
2022/09/19 12:07:35;;;;;;;3.77;1.33;;;410.40;2355.20;;;;;;5097244;28;20020;-78
2022/09/19 12:10:07;;;;;;;2.45;1.23;;;410.40;2355.20;;;;;;5096600;28;20052;-82
2022/09/19 12:12:36;;;;;;;3.67;1.73;;;410.40;2355.20;;;;;;5110274;27;20031;-82
2022/09/19 12:15:28;;;;;;;3.22;1.85;;;410.40;2355.20;;;;;;5117358;28;20015;-80
2022/09/19 12:18:10;;;;;;;4.53;1.70;;;410.50;2355.20;;;;;;5131048;28;20067;-79
2022/09/19 12:20:41;;;;;;;3.08;1.83;;;410.50;2355.20;;;;;;5098235;28;20458;-80
2022/09/19 12:27:05;;;;;;;3.53;1.73;;;410.50;2355.20;;;;;;5114771;27;20047;-87
2022/09/19 12:29:38;;;;;;;3.80;2.00;;;410.50;2355.20;;;;;;5072018;28;20020;-84
2022/09/19 12:32:23;;;;;;;2.78;1.70;;;410.50;2355.20;;;;;;5084794;28;20114;-80
2022/09/19 12:35:11;;;;;;;4.13;1.90;;;410.50;2355.20;;;;;;5059540;28;20069;-82
2022/09/19 12:37:45;;;;;;;3.50;1.75;;;410.50;2355.20;;;;;;5097390;28;20023;-78
2022/09/19 12:40:44;;;;;;;2.03;1.58;;;435.20;2355.20;;;;;;5090899;28;20039;-87
2022/09/19 12:43:32;;;;;;;2.60;1.52;;;435.20;2355.20;;;;;;5084577;28;20039;-86
2022/09/19 12:46:22;;;;;;;3.30;1.70;;;435.20;2355.20;;;;;;5091888;28;20038;-85
2022/09/19 12:49:01;;;;;;;2.70;1.65;;;435.20;2355.20;;;;;;5075336;28;20577;-88
2022/09/19 12:51:44;;;;;;;3.63;1.70;;;435.20;2355.20;;;;;;5074907;28;20498;-85
2022/09/19 12:54:34;;;;;;;1.88;1.10;;;435.20;2355.20;;;;;;5091825;28;20020;-81
2022/09/19 12:57:16;;;;;;;3.45;1.52;;;435.20;2355.20;;;;;;5071229;28;20048;-86
2022/09/19 12:59:46;;;;;;;3.03;1.92;;;435.20;2355.20;;;;;;5071679;28;20123;-88
2022/09/19 13:02:48;;;;;;;2.05;1.20;;;435.30;2355.20;;;;;;5054641;28;20111;-88